Archival Weather

Norman Y Mineta San Jose Intl

San Jose, California (KSJC)

Report from: Sunday, January 28, 2024 12:53 PM PST
Current time: Monday, June 24, 2024 3:42 AM PDT

Current weather – Weather history – Daily summaries
Weather forecast

Temperature18.9°C (66.0°F)
Dew point10.6°C (51.1°F)
Winds Calm
Visibility10 mi. (16.1 km)
Clouds Scattered clouds 15,000 ft. (4,572 m)
Altimeter30.14 in.Hg (1021 mB)
Relative humidity59 %
Density altitude391 ft. (119 m)
Sea-level pressure102.1 kPa (1021 mB, 30.14 in.Hg)
Remarks Automated weather observing station with precipitation discriminator
Pressure falling more quickly
Flight conditions Visual Meteorological Conditions
Raw dataKSJC 282053Z 00000KT 10SM SCT150 19/11 A3014 RMK AO2 SLP206 T01890106 58010
An error has occurred. This application may no longer respond until reloaded. Reload 🗙